CEFAS Endeavour — VQHF3 — position and weather

sailwx.info

Track history (hours):
 
Tides and Currents Weather Stations Pressure Air Temp Water Temp Dewpoint Dewpoint Depression Visibility Wind Speed Wind Dir Waves Ship Positions

Oceanographic research ship CEFAS Endeavour (UK)

Detailed information on ship capabilities available from University of Delaware's Ocean Information Center.

Last reported at 2016-Aug-24 15:27 UTC. Time now 2016-Aug-24 18:02 UTC.
Position N 58°26' W 002°34'.

Length 74 m; draft 5.2 m.

Type: Cargo ship. MMSI: 235005270.

Date/timePositionNaut miles runAvg speedWind from/ knotsBaromVisibWave heightAir tempDewpointWater temp
2016-Aug-24 15:27N 58°26' W 002°34'56 9.2
2016-Aug-24 09:23N 57°38' W 001°39'1012.4
2016-Aug-24 08:33N 57°28' W 001°38'24 4.8
2016-Aug-24 03:33N 57°09' W 002°05'0 0.4
2016-Aug-24 02:32N 57°09' W 002°05'0 0.0
2016-Aug-24 01:32N 57°09' W 002°05'0 0.0
2016-Aug-24 00:32N 57°09' W 002°05'0 0.0
2016-Aug-23 23:32N 57°09' W 002°05'0 0.0
2016-Aug-23 22:32N 57°09' W 002°05'0 0.0
2016-Aug-23 21:29N 57°09' W 002°05'0 0.0
2016-Aug-23 20:32N 57°09' W 002°05'0 0.0
2016-Aug-23 19:32N 57°09' W 002°05'0 0.0
2016-Aug-23 18:32N 57°09' W 002°05'0 0.0
2016-Aug-23 17:29N 57°09' W 002°05'0 0.0
2016-Aug-23 16:32N 57°09' W 002°05'0 0.0
2016-Aug-23 15:29N 57°09' W 002°05'0 0.0
2016-Aug-23 14:26N 57°09' W 002°05'0 0.0
2016-Aug-23 13:29N 57°09' W 002°05'0 0.0
2016-Aug-23 12:20N 57°09' W 002°05'0 0.0
2016-Aug-23 11:08N 57°09' W 002°05'0 0.0
2016-Aug-23 10:32N 57°09' W 002°05'0 0.0
2016-Aug-23 09:29N 57°09' W 002°05'0 0.0
2016-Aug-23 08:32N 57°09' W 002°05'0 0.0
2016-Aug-23 07:32N 57°09' W 002°05'0 0.0
2016-Aug-23 06:32N 57°09' W 002°05'0 0.0
2016-Aug-23 05:32N 57°09' W 002°05'0 0.0
2016-Aug-23 04:32N 57°09' W 002°05'0 0.0
2016-Aug-23 03:29N 57°09' W 002°05'0 0.0
2016-Aug-23 02:32N 57°09' W 002°05'0 0.0
2016-Aug-23 01:32N 57°09' W 002°05'0 0.0
2016-Aug-23 00:32N 57°09' W 002°05'0 0.0
2016-Aug-22 23:29N 57°09' W 002°05'0 0.0
2016-Aug-22 22:29N 57°09' W 002°05'0 0.0
2016-Aug-22 21:17N 57°09' W 002°05'0 0.0
2016-Aug-22 20:29N 57°09' W 002°05'0 0.0
2016-Aug-22 19:32N 57°09' W 002°05'0 0.0
2016-Aug-22 18:32N 57°09' W 002°05'0 0.0
2016-Aug-22 17:29N 57°09' W 002°05'0 0.0
2016-Aug-22 16:29N 57°09' W 002°05'  
2016-Aug-19 03:30N 57°05' W 000°16'27 2.4
2016-Aug-18 16:29N 57°21' E 000°23'1212.7
2016-Aug-18 15:30N 57°09' E 000°17'5 3.7
2016-Aug-18 14:12N 57°04' E 000°13'111 4.3
2016-Aug-17 12:24N 56°45' E 003°33'5 5.6
2016-Aug-17 11:33N 56°44' E 003°42'2912.4
2016-Aug-17 09:14N 56°44' E 004°34'6 3.7
2016-Aug-17 07:33N 56°43' E 004°45'1212.6
2016-Aug-17 06:33N 56°44' E 005°08'1312.6
2016-Aug-17 05:33N 56°45' E 005°31'6 6.4
2016-Aug-17 04:33N 56°46' E 005°42'1 1.3
2016-Aug-17 03:31N 56°46' E 005°45'1312.5
2016-Aug-17 02:28N 56°38' E 005°26'1212.7
2016-Aug-17 01:33N 56°30' E 005°10'78 1.8
2016-Aug-15 06:07N 55°40' E 006°59'8 4.1
2016-Aug-15 04:15N 55°37' E 007°11'5 5.2
2016-Aug-15 03:12N 55°32' E 007°11'6 9.2
2016-Aug-15 02:33N 55°26' E 007°09'9 9.3
2016-Aug-15 01:33N 55°17' E 007°05'7 7.2
2016-Aug-15 00:33N 55°10' E 007°03'7 6.7
2016-Aug-14 23:33N 55°03' E 007°01'7 6.6
2016-Aug-14 22:33N 54°57' E 006°59'6 6.4
2016-Aug-14 21:33N 54°51' E 006°52'  
Track history (hours):
 
Tides and Currents Weather Stations Pressure Air Temp Water Temp Dewpoint Dewpoint Depression Visibility Wind Speed Wind Dir Waves Ship Positions

Oceanographic research ship CEFAS Endeavour (UK)

Detailed information on ship capabilities available from University of Delaware's Ocean Information Center.

Last reported at 2016-Aug-24 15:27 UTC. Time now 2016-Aug-24 18:02 UTC.
Position N 58°26' W 002°34'.

Length 74 m; draft 5.2 m.

Type: Cargo ship. MMSI: 235005270.

Date/timePositionNaut miles runAvg speedWind from/ knotsBaromVisibWave heightAir tempDewpointWater temp
2016-Aug-24 15:27N 58°26' W 002°34'56 9.2
2016-Aug-24 09:23N 57°38' W 001°39'1012.4
2016-Aug-24 08:33N 57°28' W 001°38'24 4.8
2016-Aug-24 03:33N 57°09' W 002°05'0 0.4
2016-Aug-24 02:32N 57°09' W 002°05'0 0.0
2016-Aug-24 01:32N 57°09' W 002°05'0 0.0
2016-Aug-24 00:32N 57°09' W 002°05'0 0.0
2016-Aug-23 23:32N 57°09' W 002°05'0 0.0
2016-Aug-23 22:32N 57°09' W 002°05'0 0.0
2016-Aug-23 21:29N 57°09' W 002°05'0 0.0
2016-Aug-23 20:32N 57°09' W 002°05'0 0.0
2016-Aug-23 19:32N 57°09' W 002°05'0 0.0
2016-Aug-23 18:32N 57°09' W 002°05'0 0.0
2016-Aug-23 17:29N 57°09' W 002°05'0 0.0
2016-Aug-23 16:32N 57°09' W 002°05'0 0.0
2016-Aug-23 15:29N 57°09' W 002°05'0 0.0
2016-Aug-23 14:26N 57°09' W 002°05'0 0.0
2016-Aug-23 13:29N 57°09' W 002°05'0 0.0
2016-Aug-23 12:20N 57°09' W 002°05'0 0.0
2016-Aug-23 11:08N 57°09' W 002°05'0 0.0
2016-Aug-23 10:32N 57°09' W 002°05'0 0.0
2016-Aug-23 09:29N 57°09' W 002°05'0 0.0
2016-Aug-23 08:32N 57°09' W 002°05'0 0.0
2016-Aug-23 07:32N 57°09' W 002°05'0 0.0
2016-Aug-23 06:32N 57°09' W 002°05'0 0.0
2016-Aug-23 05:32N 57°09' W 002°05'0 0.0
2016-Aug-23 04:32N 57°09' W 002°05'0 0.0
2016-Aug-23 03:29N 57°09' W 002°05'0 0.0
2016-Aug-23 02:32N 57°09' W 002°05'0 0.0
2016-Aug-23 01:32N 57°09' W 002°05'0 0.0
2016-Aug-23 00:32N 57°09' W 002°05'0 0.0
2016-Aug-22 23:29N 57°09' W 002°05'0 0.0
2016-Aug-22 22:29N 57°09' W 002°05'0 0.0
2016-Aug-22 21:17N 57°09' W 002°05'0 0.0
2016-Aug-22 20:29N 57°09' W 002°05'0 0.0
2016-Aug-22 19:32N 57°09' W 002°05'0 0.0
2016-Aug-22 18:32N 57°09' W 002°05'0 0.0
2016-Aug-22 17:29N 57°09' W 002°05'0 0.0
2016-Aug-22 16:29N 57°09' W 002°05'  
2016-Aug-19 03:30N 57°05' W 000°16'27 2.4
2016-Aug-18 16:29N 57°21' E 000°23'1212.7
2016-Aug-18 15:30N 57°09' E 000°17'5 3.7
2016-Aug-18 14:12N 57°04' E 000°13'111 4.3
2016-Aug-17 12:24N 56°45' E 003°33'5 5.6
2016-Aug-17 11:33N 56°44' E 003°42'2912.4
2016-Aug-17 09:14N 56°44' E 004°34'6 3.7
2016-Aug-17 07:33N 56°43' E 004°45'1212.6
2016-Aug-17 06:33N 56°44' E 005°08'1312.6
2016-Aug-17 05:33N 56°45' E 005°31'6 6.4
2016-Aug-17 04:33N 56°46' E 005°42'1 1.3
2016-Aug-17 03:31N 56°46' E 005°45'1312.5
2016-Aug-17 02:28N 56°38' E 005°26'1212.7
2016-Aug-17 01:33N 56°30' E 005°10'78 1.8
2016-Aug-15 06:07N 55°40' E 006°59'8 4.1
2016-Aug-15 04:15N 55°37' E 007°11'5 5.2
2016-Aug-15 03:12N 55°32' E 007°11'6 9.2
2016-Aug-15 02:33N 55°26' E 007°09'9 9.3
2016-Aug-15 01:33N 55°17' E 007°05'7 7.2
2016-Aug-15 00:33N 55°10' E 007°03'7 6.7
2016-Aug-14 23:33N 55°03' E 007°01'7 6.6
2016-Aug-14 22:33N 54°57' E 006°59'6 6.4
2016-Aug-14 21:33N 54°51' E 006°52'  

Dump ship's entire track history